CIA weather

Ciampino–G. B. Pastine International Airport
Rome, Lazio, Italy

Public forecast

Using degrees Celsius for public forecast. Weather courtesy of forecast.io.

Current aviation weather report (METAR) for Ciampino–G. B. Pastine International Airport

Retrieved 2019/11/12 19:20 UTC (39 minutes ago):

LIRA 121920Z 02009KT 9999 FEW030 SCT045 11/09 Q0993 RERA

Aviation forecast (TAF) for Ciampino–G. B. Pastine International Airport

Retrieved 2019/11/12 18:00 UTC (2 hours ago):

TAF LIRA 121700Z 1218/1318 13010KT 9999 SCT025 TEMPO 1218/1221 4000 TSRA BECMG 1222/1224 VRB05KT